Terminal Aerodrome Forecast
Issued by NWS

Current Version | Previous Version | Graphics & Text | Print | Product List | Glossary On
Versions: 1 2 3 4 5 6 7 8 9 10 11 12 13 14 15 16 17
000
FTUS41 KRNK 190520
TAFLWB
TAF
KLWB 190520Z 1906/2006 00000KT 3SM BR SKC
     FM190700 VRB03KT 1/4SM FG OVC001
     FM191300 00000KT P6SM FEW070=

USA.gov is the U.S. government's official web portal to all federal, state and local government web resources and services.